sensor_id;sensor_type;location;lat;lon;timestamp;P1;durP1;ratioP1;P2;durP2;ratioP2
44854;SDS011;30591;48.228;16.398;2023-03-19T00:00:47;16.17;;;9.37;;
44854;SDS011;30591;48.228;16.398;2023-03-19T00:03:14;15.07;;;9.17;;
44854;SDS011;30591;48.228;16.398;2023-03-19T00:05:49;12.97;;;9.67;;
44854;SDS011;30591;48.228;16.398;2023-03-19T00:08:19;15.43;;;9.50;;
44854;SDS011;30591;48.228;16.398;2023-03-19T00:10:48;17.23;;;9.77;;
44854;SDS011;30591;48.228;16.398;2023-03-19T00:13:17;16.30;;;9.60;;
44854;SDS011;30591;48.228;16.398;2023-03-19T00:15:44;14.77;;;10.03;;
44854;SDS011;30591;48.228;16.398;2023-03-19T00:18:12;15.43;;;8.97;;
44854;SDS011;30591;48.228;16.398;2023-03-19T00:20:40;12.53;;;9.30;;
44854;SDS011;30591;48.228;16.398;2023-03-19T00:23:08;15.50;;;9.20;;
44854;SDS011;30591;48.228;16.398;2023-03-19T00:25:35;13.30;;;9.47;;
44854;SDS011;30591;48.228;16.398;2023-03-19T00:28:03;13.90;;;9.47;;
44854;SDS011;30591;48.228;16.398;2023-03-19T00:30:30;14.03;;;9.47;;
44854;SDS011;30591;48.228;16.398;2023-03-19T00:32:57;15.07;;;10.03;;
44854;SDS011;30591;48.228;16.398;2023-03-19T00:35:25;13.87;;;9.40;;
44854;SDS011;30591;48.228;16.398;2023-03-19T00:37:52;13.23;;;9.00;;
44854;SDS011;30591;48.228;16.398;2023-03-19T00:40:20;14.23;;;9.57;;
44854;SDS011;30591;48.228;16.398;2023-03-19T00:42:48;13.60;;;9.07;;
44854;SDS011;30591;48.228;16.398;2023-03-19T00:45:16;14.70;;;8.70;;
44854;SDS011;30591;48.228;16.398;2023-03-19T00:47:44;13.23;;;9.60;;
44854;SDS011;30591;48.228;16.398;2023-03-19T00:50:11;12.97;;;9.13;;
44854;SDS011;30591;48.228;16.398;2023-03-19T00:52:39;14.70;;;9.17;;
44854;SDS011;30591;48.228;16.398;2023-03-19T00:55:06;12.63;;;9.03;;
44854;SDS011;30591;48.228;16.398;2023-03-19T00:57:34;14.77;;;9.80;;
44854;SDS011;30591;48.228;16.398;2023-03-19T01:00:02;14.90;;;9.40;;
44854;SDS011;30591;48.228;16.398;2023-03-19T01:02:30;13.20;;;9.80;;
44854;SDS011;30591;48.228;16.398;2023-03-19T01:04:58;13.43;;;9.40;;
44854;SDS011;30591;48.228;16.398;2023-03-19T01:07:25;15.03;;;9.30;;
44854;SDS011;30591;48.228;16.398;2023-03-19T01:09:55;15.17;;;9.77;;
44854;SDS011;30591;48.228;16.398;2023-03-19T01:12:22;14.70;;;9.60;;
44854;SDS011;30591;48.228;16.398;2023-03-19T01:14:49;14.40;;;9.27;;
44854;SDS011;30591;48.228;16.398;2023-03-19T01:17:17;14.27;;;9.60;;
44854;SDS011;30591;48.228;16.398;2023-03-19T01:19:44;13.70;;;9.77;;
44854;SDS011;30591;48.228;16.398;2023-03-19T01:22:12;16.07;;;9.83;;
44854;SDS011;30591;48.228;16.398;2023-03-19T01:24:46;13.90;;;8.77;;
44854;SDS011;30591;48.228;16.398;2023-03-19T01:27:13;12.77;;;9.17;;
44854;SDS011;30591;48.228;16.398;2023-03-19T01:29:41;14.03;;;9.80;;
44854;SDS011;30591;48.228;16.398;2023-03-19T01:32:22;13.27;;;9.57;;
44854;SDS011;30591;48.228;16.398;2023-03-19T01:35:13;14.27;;;9.40;;
44854;SDS011;30591;48.228;16.398;2023-03-19T01:37:41;13.73;;;9.60;;
44854;SDS011;30591;48.228;16.398;2023-03-19T01:40:10;16.13;;;9.87;;
44854;SDS011;30591;48.228;16.398;2023-03-19T01:45:44;12.17;;;8.97;;
44854;SDS011;30591;48.228;16.398;2023-03-19T01:48:50;13.40;;;8.97;;
44854;SDS011;30591;48.228;16.398;2023-03-19T01:51:23;13.93;;;9.50;;
44854;SDS011;30591;48.228;16.398;2023-03-19T01:53:55;14.97;;;10.03;;
44854;SDS011;30591;48.228;16.398;2023-03-19T01:56:44;15.40;;;9.53;;
44854;SDS011;30591;48.228;16.398;2023-03-19T01:59:27;15.77;;;9.93;;
44854;SDS011;30591;48.228;16.398;2023-03-19T02:04:51;17.67;;;11.20;;
44854;SDS011;30591;48.228;16.398;2023-03-19T02:07:22;14.83;;;9.63;;
44854;SDS011;30591;48.228;16.398;2023-03-19T02:09:52;15.40;;;10.83;;
44854;SDS011;30591;48.228;16.398;2023-03-19T02:12:21;13.50;;;9.63;;
44854;SDS011;30591;48.228;16.398;2023-03-19T02:14:48;14.63;;;10.07;;
44854;SDS011;30591;48.228;16.398;2023-03-19T02:17:15;14.63;;;9.57;;
44854;SDS011;30591;48.228;16.398;2023-03-19T02:19:48;14.90;;;9.63;;
44854;SDS011;30591;48.228;16.398;2023-03-19T02:22:26;13.90;;;9.67;;
44854;SDS011;30591;48.228;16.398;2023-03-19T02:24:58;13.27;;;9.77;;
44854;SDS011;30591;48.228;16.398;2023-03-19T02:27:30;12.73;;;8.90;;
44854;SDS011;30591;48.228;16.398;2023-03-19T02:29:58;15.93;;;9.97;;
44854;SDS011;30591;48.228;16.398;2023-03-19T02:32:27;13.83;;;9.63;;
44854;SDS011;30591;48.228;16.398;2023-03-19T02:34:55;17.13;;;10.70;;
44854;SDS011;30591;48.228;16.398;2023-03-19T02:37:26;15.47;;;10.50;;
44854;SDS011;30591;48.228;16.398;2023-03-19T02:42:53;15.13;;;9.73;;
44854;SDS011;30591;48.228;16.398;2023-03-19T02:45:21;14.53;;;9.63;;
44854;SDS011;30591;48.228;16.398;2023-03-19T02:47:53;14.40;;;9.37;;
44854;SDS011;30591;48.228;16.398;2023-03-19T02:50:23;14.07;;;9.30;;
44854;SDS011;30591;48.228;16.398;2023-03-19T02:52:50;15.00;;;9.63;;
44854;SDS011;30591;48.228;16.398;2023-03-19T02:55:18;11.40;;;8.40;;
44854;SDS011;30591;48.228;16.398;2023-03-19T02:57:47;12.63;;;8.37;;
44854;SDS011;30591;48.228;16.398;2023-03-19T03:00:14;14.53;;;9.63;;
44854;SDS011;30591;48.228;16.398;2023-03-19T03:02:44;13.93;;;9.10;;
44854;SDS011;30591;48.228;16.398;2023-03-19T03:05:12;12.50;;;9.23;;
44854;SDS011;30591;48.228;16.398;2023-03-19T03:07:40;17.50;;;9.40;;
44854;SDS011;30591;48.228;16.398;2023-03-19T03:10:09;14.87;;;9.30;;
44854;SDS011;30591;48.228;16.398;2023-03-19T03:12:37;13.47;;;8.83;;
44854;SDS011;30591;48.228;16.398;2023-03-19T03:15:05;17.23;;;9.90;;
44854;SDS011;30591;48.228;16.398;2023-03-19T03:17:41;15.23;;;10.13;;
44854;SDS011;30591;48.228;16.398;2023-03-19T03:20:11;15.63;;;10.50;;
44854;SDS011;30591;48.228;16.398;2023-03-19T03:22:40;15.23;;;10.43;;
44854;SDS011;30591;48.228;16.398;2023-03-19T03:25:07;14.90;;;10.40;;
44854;SDS011;30591;48.228;16.398;2023-03-19T03:27:36;18.43;;;10.33;;
44854;SDS011;30591;48.228;16.398;2023-03-19T03:30:05;13.37;;;9.23;;
44854;SDS011;30591;48.228;16.398;2023-03-19T03:32:34;14.57;;;9.87;;
44854;SDS011;30591;48.228;16.398;2023-03-19T03:35:03;14.43;;;9.63;;
44854;SDS011;30591;48.228;16.398;2023-03-19T03:37:32;14.20;;;9.60;;
44854;SDS011;30591;48.228;16.398;2023-03-19T03:39:59;13.27;;;9.43;;
44854;SDS011;30591;48.228;16.398;2023-03-19T03:42:27;15.37;;;9.77;;
44854;SDS011;30591;48.228;16.398;2023-03-19T03:44:54;15.53;;;9.87;;
44854;SDS011;30591;48.228;16.398;2023-03-19T03:47:22;13.53;;;9.40;;
44854;SDS011;30591;48.228;16.398;2023-03-19T03:49:50;13.73;;;9.23;;
44854;SDS011;30591;48.228;16.398;2023-03-19T03:52:17;13.57;;;9.03;;
44854;SDS011;30591;48.228;16.398;2023-03-19T03:54:44;14.70;;;9.73;;
44854;SDS011;30591;48.228;16.398;2023-03-19T03:57:11;12.20;;;8.87;;
44854;SDS011;30591;48.228;16.398;2023-03-19T03:59:39;14.40;;;9.93;;
44854;SDS011;30591;48.228;16.398;2023-03-19T04:02:06;13.00;;;9.20;;
44854;SDS011;30591;48.228;16.398;2023-03-19T04:04:34;13.53;;;9.50;;
44854;SDS011;30591;48.228;16.398;2023-03-19T04:07:01;13.07;;;9.20;;
44854;SDS011;30591;48.228;16.398;2023-03-19T04:09:36;15.87;;;9.33;;
44854;SDS011;30591;48.228;16.398;2023-03-19T04:12:03;13.57;;;9.20;;
44854;SDS011;30591;48.228;16.398;2023-03-19T04:14:31;14.70;;;9.33;;
44854;SDS011;30591;48.228;16.398;2023-03-19T04:16:59;13.93;;;9.10;;
44854;SDS011;30591;48.228;16.398;2023-03-19T04:19:26;13.40;;;9.20;;
44854;SDS011;30591;48.228;16.398;2023-03-19T04:21:53;13.80;;;9.43;;
44854;SDS011;30591;48.228;16.398;2023-03-19T04:24:21;14.50;;;9.67;;
44854;SDS011;30591;48.228;16.398;2023-03-19T04:26:49;15.97;;;9.40;;
44854;SDS011;30591;48.228;16.398;2023-03-19T04:29:18;15.43;;;8.93;;
44854;SDS011;30591;48.228;16.398;2023-03-19T04:31:46;12.30;;;8.93;;
44854;SDS011;30591;48.228;16.398;2023-03-19T04:34:13;14.63;;;9.63;;
44854;SDS011;30591;48.228;16.398;2023-03-19T04:36:40;12.20;;;8.83;;
44854;SDS011;30591;48.228;16.398;2023-03-19T04:39:08;15.20;;;9.53;;
44854;SDS011;30591;48.228;16.398;2023-03-19T04:41:35;12.60;;;9.07;;
44854;SDS011;30591;48.228;16.398;2023-03-19T04:44:23;12.70;;;9.07;;
44854;SDS011;30591;48.228;16.398;2023-03-19T04:46:51;13.57;;;9.00;;
44854;SDS011;30591;48.228;16.398;2023-03-19T04:49:20;13.20;;;9.27;;
44854;SDS011;30591;48.228;16.398;2023-03-19T04:51:49;14.70;;;8.90;;
44854;SDS011;30591;48.228;16.398;2023-03-19T04:54:18;13.63;;;9.13;;
44854;SDS011;30591;48.228;16.398;2023-03-19T04:56:46;14.27;;;9.33;;
44854;SDS011;30591;48.228;16.398;2023-03-19T04:59:14;12.97;;;9.07;;
44854;SDS011;30591;48.228;16.398;2023-03-19T05:01:42;14.93;;;8.93;;
44854;SDS011;30591;48.228;16.398;2023-03-19T05:04:11;13.07;;;8.97;;
44854;SDS011;30591;48.228;16.398;2023-03-19T05:06:39;15.77;;;9.83;;
44854;SDS011;30591;48.228;16.398;2023-03-19T05:09:07;15.00;;;9.57;;
44854;SDS011;30591;48.228;16.398;2023-03-19T05:11:35;13.77;;;9.10;;
44854;SDS011;30591;48.228;16.398;2023-03-19T05:14:12;15.07;;;9.67;;
44854;SDS011;30591;48.228;16.398;2023-03-19T05:16:58;15.87;;;9.23;;
44854;SDS011;30591;48.228;16.398;2023-03-19T05:19:32;16.03;;;9.57;;
44854;SDS011;30591;48.228;16.398;2023-03-19T05:22:00;15.40;;;9.77;;
44854;SDS011;30591;48.228;16.398;2023-03-19T10:25:53;15.33;;;11.57;;
44854;SDS011;30591;48.228;16.398;2023-03-19T10:28:26;15.57;;;11.30;;
44854;SDS011;30591;48.228;16.398;2023-03-19T10:33:48;14.27;;;11.73;;
44854;SDS011;30591;48.228;16.398;2023-03-19T10:36:29;15.97;;;11.40;;
44854;SDS011;30591;48.228;16.398;2023-03-19T10:39:01;15.03;;;11.23;;
44854;SDS011;30591;48.228;16.398;2023-03-19T10:44:44;13.87;;;11.07;;
44854;SDS011;30591;48.228;16.398;2023-03-19T10:47:10;12.83;;;11.00;;
44854;SDS011;30591;48.228;16.398;2023-03-19T10:49:39;14.63;;;11.33;;
44854;SDS011;30591;48.228;16.398;2023-03-19T10:54:56;15.97;;;11.70;;
44854;SDS011;30591;48.228;16.398;2023-03-19T10:57:33;14.90;;;11.80;;
44854;SDS011;30591;48.228;16.398;2023-03-19T11:00:02;21.07;;;11.53;;
44854;SDS011;30591;48.228;16.398;2023-03-19T11:02:32;13.47;;;9.90;;
44854;SDS011;30591;48.228;16.398;2023-03-19T11:05:35;14.53;;;10.80;;
44854;SDS011;30591;48.228;16.398;2023-03-19T11:08:01;13.90;;;11.37;;
44854;SDS011;30591;48.228;16.398;2023-03-19T11:10:34;15.20;;;11.40;;
44854;SDS011;30591;48.228;16.398;2023-03-19T11:13:06;12.43;;;10.83;;
44854;SDS011;30591;48.228;16.398;2023-03-19T11:15:47;13.90;;;10.87;;
44854;SDS011;30591;48.228;16.398;2023-03-19T11:18:15;13.40;;;11.40;;
44854;SDS011;30591;48.228;16.398;2023-03-19T11:20:48;13.73;;;10.97;;
44854;SDS011;30591;48.228;16.398;2023-03-19T11:23:40;13.00;;;10.93;;
44854;SDS011;30591;48.228;16.398;2023-03-19T11:26:08;14.63;;;11.00;;
44854;SDS011;30591;48.228;16.398;2023-03-19T11:28:36;14.97;;;11.77;;
44854;SDS011;30591;48.228;16.398;2023-03-19T11:55:42;14.07;;;12.68;;
44854;SDS011;30591;48.228;16.398;2023-03-19T11:58:47;12.82;;;10.57;;
44854;SDS011;30591;48.228;16.398;2023-03-19T12:01:44;13.13;;;11.75;;
44854;SDS011;30591;48.228;16.398;2023-03-19T12:09:41;13.77;;;10.70;;
44854;SDS011;30591;48.228;16.398;2023-03-19T12:15:11;12.95;;;11.13;;
44854;SDS011;30591;48.228;16.398;2023-03-19T12:20:29;12.95;;;11.23;;
44854;SDS011;30591;48.228;16.398;2023-03-19T12:26:13;11.93;;;10.65;;
44854;SDS011;30591;48.228;16.398;2023-03-19T12:29:03;11.68;;;10.40;;
44854;SDS011;30591;48.228;16.398;2023-03-19T12:34:55;13.70;;;10.55;;
44854;SDS011;30591;48.228;16.398;2023-03-19T12:43:00;12.00;;;10.80;;
44854;SDS011;30591;48.228;16.398;2023-03-19T12:45:35;12.18;;;11.00;;
44854;SDS011;30591;48.228;16.398;2023-03-19T12:50:44;12.23;;;10.88;;
44854;SDS011;30591;48.228;16.398;2023-03-19T12:53:21;12.68;;;10.90;;
44854;SDS011;30591;48.228;16.398;2023-03-19T12:59:01;12.20;;;10.90;;
44854;SDS011;30591;48.228;16.398;2023-03-19T13:01:48;11.98;;;10.75;;
44854;SDS011;30591;48.228;16.398;2023-03-19T13:04:26;12.48;;;11.27;;
44854;SDS011;30591;48.228;16.398;2023-03-19T13:07:05;15.23;;;10.63;;
44854;SDS011;30591;48.228;16.398;2023-03-19T13:09:42;14.50;;;11.15;;
44854;SDS011;30591;48.228;16.398;2023-03-19T13:12:24;12.93;;;11.30;;
44854;SDS011;30591;48.228;16.398;2023-03-19T13:14:57;11.55;;;10.35;;
44854;SDS011;30591;48.228;16.398;2023-03-19T13:23:19;11.55;;;10.35;;
44854;SDS011;30591;48.228;16.398;2023-03-19T13:25:52;12.70;;;10.70;;
44854;SDS011;30591;48.228;16.398;2023-03-19T13:28:27;12.45;;;11.15;;
44854;SDS011;30591;48.228;16.398;2023-03-19T13:31:03;13.45;;;11.52;;
44854;SDS011;30591;48.228;16.398;2023-03-19T13:33:33;12.27;;;9.85;;
44854;SDS011;30591;48.228;16.398;2023-03-19T13:36:04;13.20;;;11.00;;
44854;SDS011;30591;48.228;16.398;2023-03-19T13:38:38;12.20;;;10.27;;
44854;SDS011;30591;48.228;16.398;2023-03-19T13:43:59;12.57;;;11.27;;
44854;SDS011;30591;48.228;16.398;2023-03-19T13:46:46;15.38;;;11.32;;
44854;SDS011;30591;48.228;16.398;2023-03-19T13:49:24;12.55;;;10.75;;
44854;SDS011;30591;48.228;16.398;2023-03-19T13:51:57;13.55;;;10.85;;
44854;SDS011;30591;48.228;16.398;2023-03-19T13:54:44;12.75;;;10.55;;
44854;SDS011;30591;48.228;16.398;2023-03-19T13:59:45;11.25;;;9.85;;
44854;SDS011;30591;48.228;16.398;2023-03-19T14:04:48;14.57;;;10.63;;
44854;SDS011;30591;48.228;16.398;2023-03-19T14:07:21;15.27;;;10.70;;
44854;SDS011;30591;48.228;16.398;2023-03-19T14:12:28;13.83;;;10.30;;
44854;SDS011;30591;48.228;16.398;2023-03-19T14:28:38;12.13;;;10.17;;
44854;SDS011;30591;48.228;16.398;2023-03-19T14:31:27;13.43;;;10.67;;
44854;SDS011;30591;48.228;16.398;2023-03-19T14:39:39;15.13;;;11.20;;
44854;SDS011;30591;48.228;16.398;2023-03-19T14:47:32;12.43;;;10.50;;
44854;SDS011;30591;48.228;16.398;2023-03-19T14:53:00;14.40;;;9.90;;
44854;SDS011;30591;48.228;16.398;2023-03-19T14:55:40;13.97;;;9.90;;
44854;SDS011;30591;48.228;16.398;2023-03-19T14:58:11;13.20;;;10.00;;
44854;SDS011;30591;48.228;16.398;2023-03-19T15:00:48;13.47;;;10.53;;
44854;SDS011;30591;48.228;16.398;2023-03-19T15:03:19;18.37;;;10.83;;
44854;SDS011;30591;48.228;16.398;2023-03-19T15:05:48;17.37;;;10.77;;
44854;SDS011;30591;48.228;16.398;2023-03-19T15:08:21;14.27;;;9.97;;
44854;SDS011;30591;48.228;16.398;2023-03-19T15:19:44;14.80;;;10.80;;
44854;SDS011;30591;48.228;16.398;2023-03-19T15:22:13;12.70;;;9.03;;
44854;SDS011;30591;48.228;16.398;2023-03-19T15:24:44;14.07;;;10.23;;
44854;SDS011;30591;48.228;16.398;2023-03-19T15:29:51;12.30;;;9.60;;
44854;SDS011;30591;48.228;16.398;2023-03-19T15:32:29;15.27;;;10.23;;
44854;SDS011;30591;48.228;16.398;2023-03-19T15:35:31;14.17;;;9.47;;
44854;SDS011;30591;48.228;16.398;2023-03-19T15:38:07;14.77;;;9.83;;
44854;SDS011;30591;48.228;16.398;2023-03-19T15:40:37;13.27;;;9.80;;
44854;SDS011;30591;48.228;16.398;2023-03-19T15:43:06;13.07;;;9.93;;
44854;SDS011;30591;48.228;16.398;2023-03-19T15:45:37;14.30;;;8.57;;
44854;SDS011;30591;48.228;16.398;2023-03-19T15:48:15;12.67;;;8.80;;
44854;SDS011;30591;48.228;16.398;2023-03-19T15:50:51;13.97;;;9.43;;
44854;SDS011;30591;48.228;16.398;2023-03-19T15:53:25;13.73;;;9.87;;
44854;SDS011;30591;48.228;16.398;2023-03-19T15:55:59;11.63;;;8.87;;
44854;SDS011;30591;48.228;16.398;2023-03-19T15:58:29;11.97;;;9.23;;
44854;SDS011;30591;48.228;16.398;2023-03-19T16:01:04;15.10;;;9.70;;
44854;SDS011;30591;48.228;16.398;2023-03-19T16:03:38;13.00;;;9.33;;
44854;SDS011;30591;48.228;16.398;2023-03-19T16:06:21;16.77;;;10.47;;
44854;SDS011;30591;48.228;16.398;2023-03-19T16:11:47;17.20;;;10.57;;
44854;SDS011;30591;48.228;16.398;2023-03-19T16:17:11;13.40;;;9.77;;
44854;SDS011;30591;48.228;16.398;2023-03-19T16:22:22;14.27;;;9.50;;
44854;SDS011;30591;48.228;16.398;2023-03-19T16:24:54;12.87;;;9.20;;
44854;SDS011;30591;48.228;16.398;2023-03-19T16:27:35;13.23;;;9.80;;
44854;SDS011;30591;48.228;16.398;2023-03-19T16:32:57;12.33;;;9.20;;
44854;SDS011;30591;48.228;16.398;2023-03-19T16:35:32;11.63;;;8.87;;
44854;SDS011;30591;48.228;16.398;2023-03-19T16:38:21;13.80;;;8.70;;
44854;SDS011;30591;48.228;16.398;2023-03-19T16:43:45;14.07;;;8.67;;
44854;SDS011;30591;48.228;16.398;2023-03-19T16:46:12;12.67;;;9.70;;
44854;SDS011;30591;48.228;16.398;2023-03-19T16:48:42;11.70;;;8.60;;
44854;SDS011;30591;48.228;16.398;2023-03-19T16:51:14;14.50;;;9.40;;
44854;SDS011;30591;48.228;16.398;2023-03-19T16:53:44;13.53;;;9.37;;
44854;SDS011;30591;48.228;16.398;2023-03-19T16:56:13;15.50;;;10.87;;
44854;SDS011;30591;48.228;16.398;2023-03-19T16:58:43;15.53;;;10.00;;
44854;SDS011;30591;48.228;16.398;2023-03-19T17:03:44;15.00;;;9.43;;
44854;SDS011;30591;48.228;16.398;2023-03-19T17:06:13;15.40;;;9.80;;
44854;SDS011;30591;48.228;16.398;2023-03-19T17:08:41;12.67;;;10.00;;
44854;SDS011;30591;48.228;16.398;2023-03-19T17:11:15;15.47;;;10.80;;
44854;SDS011;30591;48.228;16.398;2023-03-19T17:14:03;15.43;;;10.27;;
44854;SDS011;30591;48.228;16.398;2023-03-19T17:16:32;14.23;;;9.77;;
44854;SDS011;30591;48.228;16.398;2023-03-19T17:19:11;13.53;;;9.30;;
44854;SDS011;30591;48.228;16.398;2023-03-19T17:21:44;14.63;;;9.97;;
44854;SDS011;30591;48.228;16.398;2023-03-19T17:26:49;15.57;;;9.83;;
44854;SDS011;30591;48.228;16.398;2023-03-19T17:29:17;15.43;;;10.10;;
44854;SDS011;30591;48.228;16.398;2023-03-19T17:31:46;13.43;;;9.40;;
44854;SDS011;30591;48.228;16.398;2023-03-19T17:34:18;13.60;;;9.47;;
44854;SDS011;30591;48.228;16.398;2023-03-19T17:36:56;12.67;;;9.17;;
44854;SDS011;30591;48.228;16.398;2023-03-19T17:39:26;14.30;;;9.57;;
44854;SDS011;30591;48.228;16.398;2023-03-19T17:41:58;14.97;;;9.40;;
44854;SDS011;30591;48.228;16.398;2023-03-19T17:44:25;14.50;;;9.77;;
44854;SDS011;30591;48.228;16.398;2023-03-19T17:46:53;16.87;;;9.63;;
44854;SDS011;30591;48.228;16.398;2023-03-19T17:49:26;12.67;;;9.53;;
44854;SDS011;30591;48.228;16.398;2023-03-19T17:51:55;16.27;;;10.10;;
44854;SDS011;30591;48.228;16.398;2023-03-19T17:54:24;14.80;;;9.63;;
44854;SDS011;30591;48.228;16.398;2023-03-19T17:56:53;18.47;;;12.07;;
44854;SDS011;30591;48.228;16.398;2023-03-19T17:59:21;117.83;;;76.60;;
44854;SDS011;30591;48.228;16.398;2023-03-19T18:01:49;332.13;;;186.33;;
44854;SDS011;30591;48.228;16.398;2023-03-19T18:04:18;271.53;;;166.37;;
44854;SDS011;30591;48.228;16.398;2023-03-19T18:06:51;232.13;;;140.70;;
44854;SDS011;30591;48.228;16.398;2023-03-19T18:09:22;134.50;;;82.37;;
44854;SDS011;30591;48.228;16.398;2023-03-19T18:11:51;121.53;;;74.83;;
44854;SDS011;30591;48.228;16.398;2023-03-19T18:14:18;52.80;;;33.37;;
44854;SDS011;30591;48.228;16.398;2023-03-19T18:16:46;50.23;;;30.03;;
44854;SDS011;30591;48.228;16.398;2023-03-19T18:19:47;31.07;;;23.30;;
44854;SDS011;30591;48.228;16.398;2023-03-19T18:22:13;28.47;;;19.17;;
44854;SDS011;30591;48.228;16.398;2023-03-19T18:24:42;26.37;;;18.80;;
44854;SDS011;30591;48.228;16.398;2023-03-19T18:27:11;30.90;;;18.27;;
44854;SDS011;30591;48.228;16.398;2023-03-19T18:29:39;30.20;;;18.33;;
44854;SDS011;30591;48.228;16.398;2023-03-19T18:32:10;25.87;;;17.20;;
44854;SDS011;30591;48.228;16.398;2023-03-19T18:34:47;31.20;;;18.30;;
44854;SDS011;30591;48.228;16.398;2023-03-19T18:37:15;22.23;;;15.97;;
44854;SDS011;30591;48.228;16.398;2023-03-19T18:39:43;26.13;;;17.87;;
44854;SDS011;30591;48.228;16.398;2023-03-19T18:42:11;23.37;;;16.17;;
44854;SDS011;30591;48.228;16.398;2023-03-19T18:44:40;26.93;;;16.80;;
44854;SDS011;30591;48.228;16.398;2023-03-19T18:47:11;26.67;;;17.07;;
44854;SDS011;30591;48.228;16.398;2023-03-19T18:49:41;30.80;;;24.33;;
44854;SDS011;30591;48.228;16.398;2023-03-19T18:52:10;21.73;;;15.10;;
44854;SDS011;30591;48.228;16.398;2023-03-19T18:54:43;20.20;;;17.20;;
44854;SDS011;30591;48.228;16.398;2023-03-19T18:57:11;24.27;;;17.83;;
44854;SDS011;30591;48.228;16.398;2023-03-19T18:59:40;20.80;;;14.57;;
44854;SDS011;30591;48.228;16.398;2023-03-19T19:02:50;19.43;;;14.40;;
44854;SDS011;30591;48.228;16.398;2023-03-19T19:05:00;20.63;;;14.83;;
44854;SDS011;30591;48.228;16.398;2023-03-19T19:07:27;31.53;;;19.20;;
44854;SDS011;30591;48.228;16.398;2023-03-19T19:09:54;27.07;;;18.87;;
44854;SDS011;30591;48.228;16.398;2023-03-19T19:12:22;30.07;;;21.60;;
44854;SDS011;30591;48.228;16.398;2023-03-19T19:14:51;31.30;;;22.20;;
44854;SDS011;30591;48.228;16.398;2023-03-19T19:17:19;34.57;;;19.77;;
44854;SDS011;30591;48.228;16.398;2023-03-19T19:19:54;26.77;;;18.30;;
44854;SDS011;30591;48.228;16.398;2023-03-19T19:22:21;26.60;;;18.47;;
44854;SDS011;30591;48.228;16.398;2023-03-19T19:24:49;27.30;;;18.03;;
44854;SDS011;30591;48.228;16.398;2023-03-19T19:27:18;26.93;;;17.67;;
44854;SDS011;30591;48.228;16.398;2023-03-19T19:29:48;26.00;;;16.27;;
44854;SDS011;30591;48.228;16.398;2023-03-19T19:32:18;24.60;;;16.60;;
44854;SDS011;30591;48.228;16.398;2023-03-19T19:34:50;22.53;;;16.90;;
44854;SDS011;30591;48.228;16.398;2023-03-19T19:37:18;20.40;;;15.27;;
44854;SDS011;30591;48.228;16.398;2023-03-19T19:39:49;22.57;;;16.30;;
44854;SDS011;30591;48.228;16.398;2023-03-19T19:42:18;24.67;;;17.67;;
44854;SDS011;30591;48.228;16.398;2023-03-19T19:44:50;24.50;;;16.70;;
44854;SDS011;30591;48.228;16.398;2023-03-19T19:47:25;23.67;;;14.93;;
44854;SDS011;30591;48.228;16.398;2023-03-19T19:49:53;24.60;;;16.03;;
44854;SDS011;30591;48.228;16.398;2023-03-19T19:52:20;22.93;;;15.57;;
44854;SDS011;30591;48.228;16.398;2023-03-19T19:54:47;24.23;;;15.33;;
44854;SDS011;30591;48.228;16.398;2023-03-19T19:57:18;23.23;;;15.93;;
44854;SDS011;30591;48.228;16.398;2023-03-19T19:59:52;25.37;;;16.40;;
44854;SDS011;30591;48.228;16.398;2023-03-19T20:02:22;25.27;;;16.53;;
44854;SDS011;30591;48.228;16.398;2023-03-19T20:04:51;27.87;;;17.93;;
44854;SDS011;30591;48.228;16.398;2023-03-19T20:07:19;32.07;;;18.80;;
44854;SDS011;30591;48.228;16.398;2023-03-19T20:09:46;33.67;;;20.67;;
44854;SDS011;30591;48.228;16.398;2023-03-19T20:14:49;33.27;;;20.60;;
44854;SDS011;30591;48.228;16.398;2023-03-19T20:17:17;33.10;;;19.10;;
44854;SDS011;30591;48.228;16.398;2023-03-19T20:19:48;28.80;;;19.03;;
44854;SDS011;30591;48.228;16.398;2023-03-19T20:22:16;29.77;;;17.80;;
44854;SDS011;30591;48.228;16.398;2023-03-19T20:24:44;27.27;;;17.73;;
44854;SDS011;30591;48.228;16.398;2023-03-19T20:27:24;33.23;;;17.20;;
44854;SDS011;30591;48.228;16.398;2023-03-19T20:29:56;25.40;;;16.90;;
44854;SDS011;30591;48.228;16.398;2023-03-19T20:32:30;27.57;;;17.07;;
44854;SDS011;30591;48.228;16.398;2023-03-19T20:34:59;25.57;;;16.47;;
44854;SDS011;30591;48.228;16.398;2023-03-19T20:37:27;28.00;;;17.37;;
44854;SDS011;30591;48.228;16.398;2023-03-19T20:39:55;24.57;;;17.23;;
44854;SDS011;30591;48.228;16.398;2023-03-19T20:42:22;25.90;;;17.07;;
44854;SDS011;30591;48.228;16.398;2023-03-19T20:44:52;26.30;;;17.43;;
44854;SDS011;30591;48.228;16.398;2023-03-19T20:47:22;27.90;;;17.67;;
44854;SDS011;30591;48.228;16.398;2023-03-19T20:49:51;25.60;;;17.60;;
44854;SDS011;30591;48.228;16.398;2023-03-19T20:52:19;26.87;;;18.07;;
44854;SDS011;30591;48.228;16.398;2023-03-19T20:54:47;30.17;;;17.17;;
44854;SDS011;30591;48.228;16.398;2023-03-19T20:57:16;27.07;;;17.50;;
44854;SDS011;30591;48.228;16.398;2023-03-19T20:59:48;26.40;;;17.67;;
44854;SDS011;30591;48.228;16.398;2023-03-19T21:02:16;29.93;;;17.93;;
44854;SDS011;30591;48.228;16.398;2023-03-19T21:04:46;28.83;;;19.13;;
44854;SDS011;30591;48.228;16.398;2023-03-19T21:07:35;27.63;;;17.40;;
44854;SDS011;30591;48.228;16.398;2023-03-19T21:10:03;29.63;;;18.43;;
44854;SDS011;30591;48.228;16.398;2023-03-19T21:12:45;30.30;;;18.77;;
44854;SDS011;30591;48.228;16.398;2023-03-19T21:15:13;31.27;;;18.63;;
44854;SDS011;30591;48.228;16.398;2023-03-19T21:17:41;28.23;;;18.83;;
44854;SDS011;30591;48.228;16.398;2023-03-19T21:20:14;30.00;;;19.80;;
44854;SDS011;30591;48.228;16.398;2023-03-19T21:22:44;30.30;;;18.33;;
44854;SDS011;30591;48.228;16.398;2023-03-19T21:25:19;29.90;;;19.07;;
44854;SDS011;30591;48.228;16.398;2023-03-19T21:27:51;28.47;;;17.80;;
44854;SDS011;30591;48.228;16.398;2023-03-19T21:30:21;28.53;;;17.83;;
44854;SDS011;30591;48.228;16.398;2023-03-19T21:32:48;30.67;;;18.83;;
44854;SDS011;30591;48.228;16.398;2023-03-19T21:35:21;29.60;;;18.00;;
44854;SDS011;30591;48.228;16.398;2023-03-19T21:37:50;26.83;;;17.83;;
44854;SDS011;30591;48.228;16.398;2023-03-19T21:40:24;26.30;;;18.10;;
44854;SDS011;30591;48.228;16.398;2023-03-19T21:42:55;28.67;;;18.30;;
44854;SDS011;30591;48.228;16.398;2023-03-19T21:45:27;26.20;;;17.77;;
44854;SDS011;30591;48.228;16.398;2023-03-19T21:48:14;28.77;;;17.63;;
44854;SDS011;30591;48.228;16.398;2023-03-19T21:50:56;27.83;;;17.83;;
44854;SDS011;30591;48.228;16.398;2023-03-19T21:53:24;29.47;;;18.37;;
44854;SDS011;30591;48.228;16.398;2023-03-19T21:55:55;29.60;;;18.20;;
44854;SDS011;30591;48.228;16.398;2023-03-19T22:00:57;34.80;;;20.33;;
44854;SDS011;30591;48.228;16.398;2023-03-19T22:03:25;36.37;;;20.53;;
44854;SDS011;30591;48.228;16.398;2023-03-19T22:05:53;33.43;;;20.20;;
44854;SDS011;30591;48.228;16.398;2023-03-19T22:08:23;35.40;;;21.73;;
44854;SDS011;30591;48.228;16.398;2023-03-19T22:10:55;31.33;;;19.97;;